createdAt,value
2023-05-15T00:02:17.615Z,13.60
2023-05-15T00:04:44.655Z,13.50
2023-05-15T00:07:11.741Z,13.50
2023-05-15T00:09:38.992Z,13.60
2023-05-15T00:12:08.582Z,13.60
2023-05-15T00:14:37.843Z,13.60
2023-05-15T00:17:07.852Z,13.60
2023-05-15T00:19:34.801Z,13.50
2023-05-15T00:22:01.857Z,13.50
2023-05-15T00:24:31.230Z,13.50
2023-05-15T00:27:01.666Z,13.50
2023-05-15T00:29:28.569Z,13.50
2023-05-15T00:31:57.754Z,13.50
2023-05-15T00:34:25.778Z,13.50
2023-05-15T00:36:52.719Z,13.60
2023-05-15T00:39:19.624Z,13.60
2023-05-15T00:41:47.983Z,13.60
2023-05-15T00:44:22.033Z,13.60
2023-05-15T00:46:51.479Z,13.60
2023-05-15T00:49:20.891Z,13.60
2023-05-15T00:51:47.881Z,13.60
2023-05-15T00:54:17.270Z,13.60
2023-05-15T00:56:45.013Z,13.60
2023-05-15T00:59:14.490Z,13.60
2023-05-15T01:01:45.318Z,13.60
2023-05-15T01:04:12.257Z,13.70
2023-05-15T01:06:41.333Z,13.70
2023-05-15T01:09:08.414Z,13.70
2023-05-15T01:11:40.757Z,13.70
2023-05-15T01:14:08.069Z,13.70
2023-05-15T01:16:37.533Z,13.70
2023-05-15T01:19:04.883Z,13.70
2023-05-15T01:21:40.774Z,13.70
2023-05-15T01:24:47.579Z,13.70
2023-05-15T01:27:26.052Z,13.70
2023-05-15T01:30:22.640Z,13.70
2023-05-15T01:33:19.835Z,13.70
2023-05-15T01:35:55.543Z,13.70
2023-05-15T01:38:34.120Z,13.60
2023-05-15T01:41:28.847Z,13.50
2023-05-15T01:44:11.186Z,13.50
2023-05-15T01:46:46.373Z,13.50
2023-05-15T01:49:17.880Z,13.50
2023-05-15T01:51:47.388Z,13.50
2023-05-15T01:54:19.010Z,13.40
2023-05-15T01:56:48.964Z,13.40
2023-05-15T01:59:20.579Z,13.30
2023-05-15T02:01:49.807Z,13.30
2023-05-15T02:04:19.474Z,13.30
2023-05-15T02:06:47.506Z,13.30
2023-05-15T02:09:14.411Z,13.40
2023-05-15T02:11:41.331Z,13.40
2023-05-15T02:14:10.937Z,13.50
2023-05-15T02:16:37.967Z,13.40
2023-05-15T02:19:04.889Z,13.40
2023-05-15T02:21:34.857Z,13.30
2023-05-15T02:24:01.776Z,13.30
2023-05-15T02:26:50.611Z,13.30
2023-05-15T02:29:22.231Z,13.30
2023-05-15T02:32:05.977Z,13.30
2023-05-15T02:35:09.648Z,13.30
2023-05-15T02:37:40.213Z,13.30
2023-05-15T02:40:11.233Z,13.30
2023-05-15T02:42:41.153Z,13.30
2023-05-15T02:45:08.772Z,13.30
2023-05-15T02:47:36.279Z,13.30
2023-05-15T02:50:03.590Z,13.30
2023-05-15T02:52:38.332Z,13.30
2023-05-15T02:55:06.385Z,13.30
2023-05-15T02:57:34.095Z,13.20
2023-05-15T03:00:01.092Z,13.20
2023-05-15T03:02:32.772Z,13.20
2023-05-15T03:05:02.219Z,13.20
2023-05-15T03:07:31.421Z,13.10
2023-05-15T03:09:58.319Z,13.20
2023-05-15T03:12:27.824Z,13.20
2023-05-15T03:14:57.392Z,13.20
2023-05-15T03:17:24.426Z,13.10
2023-05-15T03:19:53.605Z,13.20
2023-05-15T03:22:20.889Z,13.20
2023-05-15T03:24:52.308Z,13.10
2023-05-15T03:27:21.353Z,13.10
2023-05-15T03:29:51.163Z,13.00
2023-05-15T03:32:18.313Z,13.10
2023-05-15T03:34:45.307Z,13.00
2023-05-15T03:37:12.277Z,13.00
2023-05-15T03:39:39.237Z,13.00
2023-05-15T03:42:13.363Z,13.00
2023-05-15T03:44:41.302Z,13.00
2023-05-15T03:47:13.202Z,13.00
2023-05-15T03:49:42.272Z,12.90
2023-05-15T03:52:09.245Z,12.80
2023-05-15T03:54:36.461Z,12.80
2023-05-15T03:57:06.496Z,12.80
2023-05-15T03:59:33.629Z,12.80
2023-05-15T04:02:04.325Z,12.80
2023-05-15T04:04:32.275Z,12.80
2023-05-15T04:06:59.456Z,12.80
2023-05-15T04:09:26.425Z,12.70
2023-05-15T04:11:55.729Z,12.70
2023-05-15T04:14:22.711Z,12.70
2023-05-15T04:16:52.711Z,12.70
2023-05-15T04:19:19.814Z,12.70
2023-05-15T04:21:46.795Z,12.60
2023-05-15T04:24:18.280Z,12.60
2023-05-15T04:26:45.239Z,12.70
2023-05-15T04:29:16.928Z,12.70
2023-05-15T04:31:43.875Z,12.70
2023-05-15T04:34:13.270Z,12.60
2023-05-15T04:36:42.185Z,12.70
2023-05-15T04:39:17.118Z,12.60
2023-05-15T04:41:46.482Z,12.60
2023-05-15T04:44:13.448Z,12.50
2023-05-15T04:46:40.455Z,12.50
2023-05-15T04:49:09.642Z,12.50
2023-05-15T04:51:44.269Z,12.50
2023-05-15T04:54:16.310Z,12.50
2023-05-15T04:56:48.435Z,12.50
2023-05-15T04:59:18.250Z,12.30
2023-05-15T05:01:49.816Z,12.30
2023-05-15T05:04:19.662Z,12.10
2023-05-15T05:06:47.224Z,12.00
2023-05-15T05:09:21.366Z,11.90
2023-05-15T05:11:50.741Z,11.80
2023-05-15T05:14:17.755Z,11.70
2023-05-15T05:16:46.960Z,11.70
2023-05-15T05:19:16.326Z,11.50
2023-05-15T05:21:45.715Z,11.40
2023-05-15T05:24:12.669Z,11.40
2023-05-15T05:26:43.140Z,11.40
2023-05-15T05:29:12.437Z,11.40
2023-05-15T05:31:39.368Z,11.40
2023-05-15T05:34:06.620Z,11.40
2023-05-15T05:36:37.048Z,11.40
2023-05-15T05:39:06.242Z,11.30
2023-05-15T05:41:33.268Z,11.20
2023-05-15T05:44:00.208Z,11.10
2023-05-15T05:46:27.396Z,11.10
2023-05-15T05:48:54.366Z,11.00
2023-05-15T05:51:23.632Z,11.00
2023-05-15T05:53:55.240Z,11.00
2023-05-15T05:56:22.779Z,11.00
2023-05-15T05:58:49.769Z,11.00
2023-05-15T06:01:19.659Z,11.00
2023-05-15T06:03:46.865Z,11.00
2023-05-15T06:06:16.366Z,10.90
2023-05-15T06:08:46.041Z,10.90
2023-05-15T06:11:12.998Z,11.00
2023-05-15T06:13:40.625Z,11.00
2023-05-15T06:16:10.009Z,11.00
2023-05-15T06:18:36.965Z,11.00
2023-05-15T06:21:04.043Z,11.00
2023-05-15T06:23:31.150Z,11.00
2023-05-15T06:26:05.954Z,11.00
2023-05-15T06:28:35.959Z,11.10
2023-05-15T06:31:03.033Z,11.10
2023-05-15T06:33:30.016Z,11.10
2023-05-15T06:35:56.908Z,11.10
2023-05-15T06:38:28.573Z,11.10
2023-05-15T06:40:57.726Z,11.10
2023-05-15T06:43:24.631Z,11.10
2023-05-15T06:45:51.758Z,11.30
2023-05-15T06:48:20.877Z,11.30
2023-05-15T06:50:47.818Z,11.30
2023-05-15T06:53:18.681Z,11.40
2023-05-15T06:55:47.845Z,11.30
2023-05-15T06:58:18.119Z,11.30
2023-05-15T07:00:45.126Z,11.30
2023-05-15T07:03:15.795Z,11.40
2023-05-15T07:05:45.414Z,11.50
2023-05-15T07:08:12.445Z,11.50
2023-05-15T07:10:39.454Z,11.50
2023-05-15T07:13:06.406Z,11.60
2023-05-15T07:15:35.861Z,11.50
2023-05-15T07:18:02.992Z,11.50
2023-05-15T07:20:33.579Z,11.50
2023-05-15T07:23:01.988Z,11.50
2023-05-15T07:25:29.412Z,11.70
2023-05-15T07:28:01.126Z,11.70
2023-05-15T07:30:30.686Z,11.80
2023-05-15T07:32:57.662Z,11.90
2023-05-15T07:35:27.399Z,12.00
2023-05-15T07:37:54.561Z,12.30
2023-05-15T07:40:23.807Z,12.50
2023-05-15T07:42:52.934Z,12.50
2023-05-15T07:45:25.580Z,12.70
2023-05-15T07:47:58.908Z,12.90
2023-05-15T07:50:28.464Z,13.30
2023-05-15T07:53:00.311Z,13.30
2023-05-15T07:55:27.520Z,13.10
2023-05-15T07:57:57.065Z,13.30
2023-05-15T08:00:28.582Z,13.50
2023-05-15T08:02:55.736Z,13.40
2023-05-15T08:05:22.970Z,13.20
2023-05-15T08:07:50.052Z,13.10
2023-05-15T08:10:19.240Z,13.10
2023-05-15T08:12:48.758Z,13.10
2023-05-15T08:15:15.884Z,13.10
2023-05-15T08:17:43.079Z,13.20
2023-05-15T08:20:13.110Z,13.30
2023-05-15T08:22:40.156Z,13.30
2023-05-15T08:25:09.677Z,13.30
2023-05-15T08:27:39.114Z,13.30
2023-05-15T08:30:11.735Z,13.30
2023-05-15T08:32:38.867Z,13.40
2023-05-15T08:35:08.436Z,13.40
2023-05-15T08:37:35.419Z,13.50
2023-05-15T08:40:05.301Z,13.60
2023-05-15T08:42:45.910Z,13.60
2023-05-15T08:45:15.795Z,13.60
2023-05-15T08:47:45.501Z,13.70
2023-05-15T08:50:20.155Z,13.70
2023-05-15T08:52:47.445Z,13.90
2023-05-15T08:55:14.862Z,14.00
2023-05-15T08:57:41.919Z,14.10
2023-05-15T09:00:14.990Z,14.20
2023-05-15T09:02:44.752Z,14.20
2023-05-15T09:05:16.269Z,14.10
2023-05-15T09:07:45.016Z,14.10
2023-05-15T09:10:12.115Z,14.20
2023-05-15T09:12:42.656Z,14.20
2023-05-15T09:15:17.831Z,14.10
2023-05-15T09:17:45.564Z,14.10
2023-05-15T09:20:27.926Z,14.20
2023-05-15T09:22:59.031Z,14.40
2023-05-15T09:25:35.912Z,14.40
2023-05-15T09:28:02.899Z,14.40
2023-05-15T09:30:32.061Z,14.30
2023-05-15T09:33:03.731Z,14.20
2023-05-15T09:35:38.642Z,14.30
2023-05-15T09:38:10.424Z,14.30
2023-05-15T09:40:44.348Z,14.30
2023-05-15T09:43:12.212Z,14.30
2023-05-15T09:45:39.196Z,14.30
2023-05-15T09:48:07.061Z,14.30
2023-05-15T09:50:39.450Z,14.30
2023-05-15T09:53:06.462Z,14.30
2023-05-15T09:55:34.453Z,14.30
2023-05-15T09:58:11.319Z,14.40
2023-05-15T10:00:48.708Z,14.50
2023-05-15T10:03:23.502Z,14.50
2023-05-15T10:06:03.838Z,14.50
2023-05-15T10:08:30.986Z,14.40
2023-05-15T10:11:02.445Z,14.40
2023-05-15T10:13:32.241Z,14.50
2023-05-15T10:15:59.264Z,14.50
2023-05-15T10:18:30.947Z,14.60
2023-05-15T10:21:04.413Z,14.50
2023-05-15T10:23:31.589Z,14.50
2023-05-15T10:26:04.654Z,14.50
2023-05-15T10:28:31.664Z,14.50
2023-05-15T10:31:02.436Z,14.60
2023-05-15T10:33:31.933Z,14.80
2023-05-15T10:36:06.539Z,14.70
2023-05-15T10:38:33.532Z,14.70
2023-05-15T10:41:15.798Z,14.50
2023-05-15T10:43:51.566Z,14.50
2023-05-15T10:46:18.648Z,14.60
2023-05-15T10:48:45.797Z,14.70
2023-05-15T10:51:24.099Z,14.70
2023-05-15T10:53:54.055Z,14.70
2023-05-15T10:56:21.636Z,14.80
2023-05-15T10:58:49.258Z,14.80
2023-05-15T11:01:27.540Z,14.90
2023-05-15T11:04:16.741Z,14.90
2023-05-15T11:06:47.265Z,14.80
2023-05-15T11:09:29.265Z,14.90
2023-05-15T11:11:57.509Z,15.00
2023-05-15T11:14:32.580Z,15.20
2023-05-15T11:17:05.620Z,15.20
2023-05-15T11:19:33.575Z,15.10
2023-05-15T11:22:32.223Z,15.00
2023-05-15T11:25:14.376Z,15.00
2023-05-15T11:27:44.827Z,15.20
2023-05-15T11:30:20.860Z,15.40
2023-05-15T11:32:50.023Z,15.30
2023-05-15T11:35:25.068Z,15.20
2023-05-15T11:37:58.199Z,15.10
2023-05-15T11:40:32.512Z,15.10
2023-05-15T11:43:00.806Z,15.00
2023-05-15T11:45:34.706Z,14.80
2023-05-15T11:48:06.656Z,14.90
2023-05-15T11:50:35.928Z,15.10
2023-05-15T11:53:09.298Z,15.30
2023-05-15T11:55:37.508Z,15.30
2023-05-15T11:58:04.725Z,15.50
2023-05-15T12:00:33.876Z,15.70
2023-05-15T12:03:01.174Z,15.90
2023-05-15T12:05:28.159Z,15.80
2023-05-15T12:07:57.797Z,15.60
2023-05-15T12:10:29.931Z,15.20
2023-05-15T12:13:01.464Z,15.00
2023-05-15T12:15:31.311Z,15.00
2023-05-15T12:18:00.637Z,15.20
2023-05-15T12:20:35.723Z,15.20
2023-05-15T12:23:06.257Z,15.00
2023-05-15T12:25:38.476Z,15.00
2023-05-15T12:28:07.912Z,15.20
2023-05-15T12:30:35.352Z,15.30
2023-05-15T12:33:06.950Z,15.30
2023-05-15T12:35:37.292Z,15.50
2023-05-15T12:38:05.118Z,15.60
2023-05-15T12:40:38.333Z,15.60
2023-05-15T12:43:06.306Z,15.50
2023-05-15T12:45:35.257Z,15.40
2023-05-15T12:48:08.094Z,15.30
2023-05-15T12:50:40.022Z,15.50
2023-05-15T12:53:06.992Z,15.50
2023-05-15T12:55:41.914Z,15.60
2023-05-15T12:58:15.339Z,15.60
2023-05-15T13:00:43.071Z,15.80
2023-05-15T13:03:10.824Z,15.80
2023-05-15T13:05:42.786Z,15.80
2023-05-15T13:08:09.773Z,15.80
2023-05-15T13:10:39.100Z,15.40
2023-05-15T13:13:06.132Z,15.00
2023-05-15T13:15:37.211Z,15.00
2023-05-15T13:18:14.294Z,15.00
2023-05-15T13:20:47.818Z,15.00
2023-05-15T13:23:21.103Z,15.00
2023-05-15T13:25:50.257Z,14.90
2023-05-15T13:28:19.329Z,15.00
2023-05-15T13:30:48.407Z,15.20
2023-05-15T13:33:15.457Z,15.10
2023-05-15T13:35:43.269Z,15.00
2023-05-15T13:38:12.755Z,14.80
2023-05-15T13:40:42.245Z,14.50
2023-05-15T13:43:11.691Z,14.50
2023-05-15T13:45:38.654Z,14.60
2023-05-15T13:48:10.413Z,14.70
2023-05-15T13:50:37.502Z,15.00
2023-05-15T13:53:08.814Z,15.40
2023-05-15T13:55:40.814Z,15.80
2023-05-15T13:58:11.732Z,16.00
2023-05-15T14:00:42.593Z,15.80
2023-05-15T14:03:15.008Z,15.50
2023-05-15T14:05:46.978Z,15.40
2023-05-15T14:08:16.684Z,15.60
2023-05-15T14:10:45.904Z,15.80
2023-05-15T14:13:15.039Z,15.80
2023-05-15T14:15:41.953Z,15.80
2023-05-15T14:18:08.938Z,15.80
2023-05-15T14:20:35.984Z,15.60
2023-05-15T14:23:05.188Z,15.50
2023-05-15T14:25:32.237Z,15.40
2023-05-15T14:28:01.646Z,15.50
2023-05-15T14:30:28.571Z,15.40
2023-05-15T14:32:55.592Z,15.20
2023-05-15T14:35:22.961Z,15.20
2023-05-15T14:37:54.429Z,15.40
2023-05-15T14:40:23.958Z,15.60
2023-05-15T14:42:55.618Z,15.80
2023-05-15T14:45:22.698Z,15.60
2023-05-15T14:47:52.233Z,15.70
2023-05-15T14:50:19.306Z,15.60
2023-05-15T14:52:48.720Z,15.60
2023-05-15T14:55:22.109Z,15.70
2023-05-15T14:57:49.821Z,16.00
2023-05-15T15:00:21.839Z,16.20
2023-05-15T15:02:51.334Z,16.40
2023-05-15T15:05:18.711Z,16.30
2023-05-15T15:08:03.850Z,16.10
2023-05-15T15:10:31.991Z,16.00
2023-05-15T15:12:59.441Z,15.60
2023-05-15T15:15:30.661Z,15.60
2023-05-15T15:17:58.104Z,15.40
2023-05-15T15:20:30.007Z,15.30
2023-05-15T15:22:59.531Z,15.40
2023-05-15T15:25:30.719Z,15.50
2023-05-15T15:28:01.992Z,15.60
2023-05-15T15:30:29.052Z,15.40
2023-05-15T15:32:58.985Z,15.20
2023-05-15T15:35:26.048Z,15.00
2023-05-15T15:37:56.495Z,15.00
2023-05-15T15:40:26.187Z,14.80
2023-05-15T15:42:55.712Z,14.60
2023-05-15T15:45:25.080Z,14.60
2023-05-15T15:47:57.246Z,14.50
2023-05-15T15:50:24.344Z,14.30
2023-05-15T15:52:51.411Z,14.40
2023-05-15T15:55:20.602Z,14.50
2023-05-15T15:57:47.650Z,14.50
2023-05-15T16:00:14.937Z,14.60
2023-05-15T16:02:44.708Z,14.50
2023-05-15T16:05:11.860Z,14.50
2023-05-15T16:07:38.804Z,14.50
2023-05-15T16:10:13.548Z,14.50
2023-05-15T16:12:40.842Z,14.50
2023-05-15T16:15:21.572Z,14.40
2023-05-15T16:17:52.587Z,14.40
2023-05-15T16:20:25.295Z,14.40
2023-05-15T16:22:54.651Z,14.50
2023-05-15T16:25:24.579Z,14.50
2023-05-15T16:27:54.461Z,14.50
2023-05-15T16:30:33.731Z,14.50
2023-05-15T16:33:14.173Z,14.40
2023-05-15T16:35:44.220Z,14.30
2023-05-15T16:38:11.261Z,14.20
2023-05-15T16:40:40.512Z,14.00
2023-05-15T16:43:12.174Z,13.90
2023-05-15T16:45:39.124Z,13.80
2023-05-15T16:48:06.320Z,13.70
2023-05-15T16:50:41.239Z,13.60
2023-05-15T16:53:10.371Z,13.60
2023-05-15T16:55:38.261Z,13.50
2023-05-15T16:58:05.182Z,13.50
2023-05-15T17:00:32.090Z,13.70
2023-05-15T17:02:59.162Z,13.90
2023-05-15T17:05:28.755Z,14.10
2023-05-15T17:07:55.694Z,14.40
2023-05-15T17:10:29.726Z,14.80
2023-05-15T17:12:56.727Z,15.20
2023-05-15T17:15:23.947Z,15.30
2023-05-15T17:17:51.057Z,15.60
2023-05-15T17:20:20.126Z,15.60
2023-05-15T17:22:49.420Z,15.40
2023-05-15T17:25:18.564Z,15.20
2023-05-15T17:27:45.532Z,15.00
2023-05-15T17:30:12.917Z,14.80
2023-05-15T17:32:42.203Z,14.70
2023-05-15T17:35:10.285Z,14.80
2023-05-15T17:37:37.660Z,14.90
2023-05-15T17:40:05.871Z,14.90
2023-05-15T17:42:38.289Z,14.90
2023-05-15T17:45:11.036Z,15.00
2023-05-15T17:47:38.045Z,15.00
2023-05-15T17:50:05.913Z,15.00
2023-05-15T17:52:38.607Z,15.00
2023-05-15T17:55:06.152Z,15.20
2023-05-15T17:57:33.110Z,15.10
2023-05-15T18:00:07.354Z,15.00
2023-05-15T18:02:39.098Z,14.70
2023-05-15T18:05:08.934Z,14.50
2023-05-15T18:07:42.408Z,14.40
2023-05-15T18:10:11.599Z,14.40
2023-05-15T18:12:40.719Z,14.20
2023-05-15T18:15:08.223Z,14.20
2023-05-15T18:17:37.490Z,14.00
2023-05-15T18:20:05.740Z,13.90
2023-05-15T18:22:32.677Z,13.80
2023-05-15T18:24:59.691Z,13.90
2023-05-15T18:27:26.669Z,13.80
2023-05-15T18:29:59.265Z,13.90
2023-05-15T18:32:26.180Z,13.80
2023-05-15T18:34:55.351Z,13.70
2023-05-15T18:37:24.515Z,13.70
2023-05-15T18:39:52.110Z,13.70
2023-05-15T18:42:19.010Z,13.60
2023-05-15T18:44:45.950Z,13.50
2023-05-15T18:47:18.329Z,13.50
2023-05-15T18:49:45.473Z,13.30
2023-05-15T18:52:19.008Z,13.30
2023-05-15T18:54:46.057Z,13.10
2023-05-15T18:57:15.390Z,13.00
2023-05-15T18:59:45.531Z,12.90
2023-05-15T19:02:12.934Z,12.70
2023-05-15T19:04:39.981Z,12.50
2023-05-15T19:07:09.426Z,12.50
2023-05-15T19:09:36.506Z,12.50
2023-05-15T19:12:05.713Z,12.40
2023-05-15T19:14:33.134Z,12.30
2023-05-15T19:17:00.153Z,12.30
2023-05-15T19:19:30.154Z,12.10
2023-05-15T19:22:01.810Z,12.00
2023-05-15T19:24:28.731Z,11.90
2023-05-15T19:26:58.215Z,11.80
2023-05-15T19:29:28.210Z,11.70
2023-05-15T19:31:55.354Z,11.60
2023-05-15T19:34:24.599Z,11.50
2023-05-15T19:36:54.018Z,11.50
2023-05-15T19:39:21.085Z,11.30
2023-05-15T19:41:47.994Z,11.20
2023-05-15T19:44:14.924Z,11.10
2023-05-15T19:46:48.753Z,10.90
2023-05-15T19:49:16.270Z,10.90
2023-05-15T19:51:45.340Z,10.70
2023-05-15T19:54:12.384Z,10.60
2023-05-15T19:56:44.086Z,10.50
2023-05-15T19:59:13.474Z,10.40
2023-05-15T20:01:45.218Z,10.30
2023-05-15T20:04:14.604Z,10.20
2023-05-15T20:06:43.765Z,10.10
2023-05-15T20:09:10.687Z,10.10
2023-05-15T20:11:39.892Z,10.00
2023-05-15T20:14:09.300Z,10.00
2023-05-15T20:16:38.542Z,9.80
2023-05-15T20:19:07.767Z,9.70
2023-05-15T20:21:34.834Z,9.70
2023-05-15T20:24:06.988Z,9.60
2023-05-15T20:26:36.057Z,9.50
2023-05-15T20:29:05.640Z,9.40
2023-05-15T20:31:35.154Z,9.40
2023-05-15T20:34:07.112Z,9.20
2023-05-15T20:36:34.805Z,9.20
2023-05-15T20:39:09.054Z,9.20
2023-05-15T20:41:37.056Z,9.00
2023-05-15T20:44:06.515Z,9.00
2023-05-15T20:46:33.557Z,8.90
2023-05-15T20:49:00.600Z,8.80
2023-05-15T20:51:29.973Z,8.80
2023-05-15T20:53:57.186Z,8.80
2023-05-15T20:56:24.127Z,8.70
2023-05-15T20:58:54.403Z,8.60
2023-05-15T21:01:23.937Z,8.60
2023-05-15T21:03:53.348Z,8.50
2023-05-15T21:06:20.287Z,8.40
2023-05-15T21:08:47.382Z,8.30
2023-05-15T21:11:14.327Z,8.30
2023-05-15T21:13:41.418Z,8.20
2023-05-15T21:16:08.540Z,8.20
2023-05-15T21:18:39.041Z,8.20
2023-05-15T21:21:09.074Z,8.10
2023-05-15T21:23:36.746Z,8.10
2023-05-15T21:26:08.350Z,8.10
2023-05-15T21:28:35.427Z,8.00
2023-05-15T21:31:11.552Z,8.00
2023-05-15T21:33:38.552Z,7.90
2023-05-15T21:36:08.198Z,7.80
2023-05-15T21:38:37.700Z,7.80
2023-05-15T21:41:04.637Z,7.80
2023-05-15T21:43:31.602Z,7.80
2023-05-15T21:46:01.128Z,7.70
2023-05-15T21:48:32.734Z,7.60
2023-05-15T21:50:59.677Z,7.50
2023-05-15T21:53:26.744Z,7.50
2023-05-15T21:56:11.538Z,7.50
2023-05-15T21:58:38.452Z,7.50
2023-05-15T22:01:07.966Z,7.50
2023-05-15T22:03:37.364Z,7.40
2023-05-15T22:06:04.582Z,7.40
2023-05-15T22:08:33.808Z,7.30
2023-05-15T22:11:03.711Z,7.20
2023-05-15T22:13:32.882Z,7.20
2023-05-15T22:16:02.557Z,7.00
2023-05-15T22:18:32.256Z,7.10
2023-05-15T22:21:01.907Z,7.00
2023-05-15T22:23:28.822Z,7.00
2023-05-15T22:25:57.871Z,7.00
2023-05-15T22:28:27.392Z,7.00
2023-05-15T22:30:56.517Z,6.90
2023-05-15T22:33:25.810Z,6.90
2023-05-15T22:35:58.213Z,6.80
2023-05-15T22:38:27.717Z,6.80
2023-05-15T22:40:54.620Z,6.70
2023-05-15T22:43:22.458Z,6.60
2023-05-15T22:45:49.590Z,6.60
2023-05-15T22:48:21.176Z,6.60
2023-05-15T22:50:55.074Z,6.50
2023-05-15T22:53:24.569Z,6.50
2023-05-15T22:55:54.011Z,6.50
2023-05-15T22:58:20.902Z,6.40
2023-05-15T23:00:47.962Z,6.30
2023-05-15T23:03:17.357Z,6.30
2023-05-15T23:05:45.341Z,6.20
2023-05-15T23:08:14.410Z,6.20
2023-05-15T23:10:46.460Z,6.10
2023-05-15T23:13:17.785Z,6.10
2023-05-15T23:15:47.169Z,6.10
2023-05-15T23:18:17.478Z,6.10
2023-05-15T23:20:46.763Z,6.10
2023-05-15T23:23:15.952Z,6.10
2023-05-15T23:25:43.243Z,6.00
2023-05-15T23:28:12.603Z,6.00
2023-05-15T23:30:46.756Z,5.90
2023-05-15T23:33:13.847Z,5.90
2023-05-15T23:35:40.764Z,5.80
2023-05-15T23:38:10.112Z,5.80
2023-05-15T23:40:40.058Z,5.80
2023-05-15T23:43:09.507Z,5.80
2023-05-15T23:45:38.625Z,5.80
2023-05-15T23:48:05.829Z,5.70
2023-05-15T23:50:34.996Z,5.70
2023-05-15T23:53:04.098Z,5.60
2023-05-15T23:55:33.256Z,5.70
2023-05-15T23:58:00.267Z,5.70
